Jp Tsubaki — JD2817 — position and weather

sailwx.info

Track history (hours):
 
Tides and Currents Weather Stations Pressure Air Temp Water Temp Dewpoint Dewpoint Depression Visibility Wind Speed Wind Dir Waves Ship Positions

Jp Tsubaki

Last reported at 2017-Jun-25 01:30 UTC. Time now 2017-Jun-25 01:52 UTC.
Position N 35°30' E 139°43'.

Length 115 m; draft 6 m.

Type: Cargo ship. MMSI: 431000734.

Date/timePositionNaut miles runAvg speedWind from/ knotsBaromVisibWave heightAir tempDewpointWater temp
2017-Jun-25 01:30N 35°30' E 139°43'0 0.0
2017-Jun-25 01:00N 35°30' E 139°43'0 0.0
2017-Jun-25 00:30N 35°30' E 139°43'0 0.0
2017-Jun-25 00:00N 35°30' E 139°43'0 0.0
2017-Jun-24 23:30N 35°30' E 139°43'0 0.0
2017-Jun-24 23:00N 35°30' E 139°43'0 0.1
2017-Jun-24 22:30N 35°30' E 139°43'2 3.4
2017-Jun-24 22:00N 35°28' E 139°42'4 8.2
2017-Jun-24 21:31N 35°25' E 139°45'3 5.1
2017-Jun-24 20:59N 35°23' E 139°44'0 0.0
2017-Jun-24 20:29N 35°23' E 139°44'0 0.1
2017-Jun-24 19:59N 35°23' E 139°44'0 0.1
2017-Jun-24 19:29N 35°23' E 139°45'0 0.1
2017-Jun-24 18:56N 35°23' E 139°45'0 0.0
2017-Jun-24 18:29N 35°23' E 139°45'0 0.1
2017-Jun-24 17:59N 35°23' E 139°45'0 0.0
2017-Jun-24 17:29N 35°23' E 139°45'0 0.0
2017-Jun-24 16:59N 35°23' E 139°45'0 0.0
2017-Jun-24 16:29N 35°23' E 139°45'0 0.0
2017-Jun-24 15:59N 35°23' E 139°45'0 0.1
2017-Jun-24 15:29N 35°23' E 139°44'0 0.0
2017-Jun-24 14:59N 35°23' E 139°44'0 0.0
2017-Jun-24 13:59N 35°23' E 139°44'0 0.0
2017-Jun-24 13:29N 35°23' E 139°44'0 0.0
2017-Jun-24 12:59N 35°23' E 139°44'0 0.0
2017-Jun-24 12:29N 35°23' E 139°44'0 0.0
2017-Jun-24 11:59N 35°23' E 139°44'0 0.0
2017-Jun-24 11:29N 35°23' E 139°44'0 0.0
2017-Jun-24 10:59N 35°23' E 139°44'0 0.0
2017-Jun-24 10:29N 35°23' E 139°44'0 0.0
2017-Jun-24 09:59N 35°23' E 139°44'0 0.1
2017-Jun-24 09:29N 35°23' E 139°45'0 0.1
2017-Jun-24 08:59N 35°23' E 139°45'0 0.0
2017-Jun-24 08:29N 35°23' E 139°45'0 0.0
2017-Jun-24 07:59N 35°23' E 139°45'0 0.1
2017-Jun-24 07:29N 35°23' E 139°45'0 0.0
2017-Jun-24 06:59N 35°23' E 139°45'0 0.0
2017-Jun-24 06:29N 35°23' E 139°45'0 0.1
2017-Jun-24 05:59N 35°23' E 139°45'0 0.0
2017-Jun-24 05:29N 35°23' E 139°45'0 0.0
2017-Jun-24 04:59N 35°23' E 139°45'0 0.0
2017-Jun-24 04:29N 35°23' E 139°45'0 0.0
2017-Jun-24 03:59N 35°23' E 139°45'0 0.0
2017-Jun-24 03:29N 35°23' E 139°45'0 0.1
2017-Jun-24 02:59N 35°23' E 139°45'0 0.1
2017-Jun-24 02:29N 35°23' E 139°44'0 0.1
2017-Jun-24 01:59N 35°23' E 139°44'0 0.1
2017-Jun-24 01:29N 35°23' E 139°44'0 0.0
2017-Jun-24 00:59N 35°23' E 139°44'1 1.8
2017-Jun-24 00:30N 35°23' E 139°44'4 8.6
2017-Jun-24 00:00N 35°24' E 139°39'0 0.3
2017-Jun-23 23:30N 35°24' E 139°38'0 0.0
2017-Jun-23 22:59N 35°24' E 139°38'0 0.0
2017-Jun-23 22:29N 35°24' E 139°38'0 0.0
2017-Jun-23 21:59N 35°24' E 139°38'0 0.0
2017-Jun-23 21:29N 35°24' E 139°38'0 0.0
2017-Jun-23 20:59N 35°24' E 139°38'0 0.0
2017-Jun-23 20:29N 35°24' E 139°38'0 0.0
2017-Jun-23 19:59N 35°24' E 139°38'0 0.0
2017-Jun-23 19:29N 35°24' E 139°38'0 0.0
2017-Jun-23 18:59N 35°24' E 139°38'0 0.0
2017-Jun-23 18:29N 35°24' E 139°38'0 0.0
2017-Jun-23 17:59N 35°24' E 139°38'0 0.0
2017-Jun-23 17:29N 35°24' E 139°38'0 0.0
2017-Jun-23 16:59N 35°24' E 139°38'0 0.0
2017-Jun-23 16:29N 35°24' E 139°38'0 0.0
2017-Jun-23 15:59N 35°24' E 139°38'0 0.0
2017-Jun-23 15:29N 35°24' E 139°38'0 0.0
2017-Jun-23 14:59N 35°24' E 139°38'0 0.0
2017-Jun-23 13:59N 35°24' E 139°38'0 0.0
2017-Jun-23 13:29N 35°24' E 139°38'0 0.0
2017-Jun-23 12:59N 35°24' E 139°38'0 0.0
2017-Jun-23 12:29N 35°24' E 139°38'0 0.0
2017-Jun-23 11:59N 35°24' E 139°38'0 0.0
2017-Jun-23 11:29N 35°24' E 139°38'0 0.0
2017-Jun-23 10:59N 35°24' E 139°38'0 0.0
2017-Jun-23 10:29N 35°24' E 139°38'0 0.0
2017-Jun-23 09:59N 35°24' E 139°38'0 0.0
2017-Jun-23 09:26N 35°24' E 139°38'0 0.0
2017-Jun-23 08:59N 35°24' E 139°38'1 1.1
2017-Jun-23 08:30N 35°24' E 139°39'4 8.0
2017-Jun-23 08:00N 35°23' E 139°44'0 0.5
2017-Jun-23 07:30N 35°22' E 139°44'1 1.2
2017-Jun-23 07:01N 35°23' E 139°44'3 6.6
2017-Jun-23 06:31N 35°24' E 139°40'0 0.2
2017-Jun-23 05:58N 35°24' E 139°40'0 0.0
2017-Jun-23 05:28N 35°24' E 139°40'0 0.0
2017-Jun-23 04:58N 35°24' E 139°40'0 0.0
2017-Jun-23 04:28N 35°24' E 139°40'0 0.0
2017-Jun-23 03:58N 35°24' E 139°40'0 0.0
2017-Jun-23 03:28N 35°24' E 139°40'0 0.0
2017-Jun-23 02:58N 35°24' E 139°40'0 0.0
2017-Jun-23 02:28N 35°24' E 139°40'0 0.0
2017-Jun-23 01:58N 35°24' E 139°40'0 0.0
2017-Jun-23 01:28N 35°24' E 139°40'0 0.0
2017-Jun-23 00:58N 35°24' E 139°40'0 0.0
2017-Jun-23 00:28N 35°24' E 139°40'0 0.0
2017-Jun-22 23:58N 35°24' E 139°40'0 0.0
2017-Jun-22 23:28N 35°24' E 139°40'0 0.4
2017-Jun-22 23:01N 35°24' E 139°40'1 2.1
2017-Jun-22 22:31N 35°24' E 139°39'0 0.0
2017-Jun-22 21:58N 35°24' E 139°39'0 0.0
2017-Jun-22 21:28N 35°24' E 139°39'0 0.0
2017-Jun-22 20:58N 35°24' E 139°39'0 0.0
2017-Jun-22 20:28N 35°24' E 139°39'0 0.0
2017-Jun-22 19:58N 35°24' E 139°39'0 0.0
2017-Jun-22 19:28N 35°24' E 139°39'0 0.0
2017-Jun-22 18:58N 35°24' E 139°39'0 0.0
2017-Jun-22 18:28N 35°24' E 139°39'0 0.0
2017-Jun-22 17:58N 35°24' E 139°39'0 0.0
2017-Jun-22 17:28N 35°24' E 139°39'0 0.1
2017-Jun-22 16:58N 35°24' E 139°39'0 0.1
2017-Jun-22 16:28N 35°24' E 139°39'0 0.0
2017-Jun-22 15:58N 35°24' E 139°39'0 0.0
2017-Jun-22 15:28N 35°24' E 139°39'0 0.0
2017-Jun-22 14:58N 35°24' E 139°39'0 0.0
2017-Jun-22 13:58N 35°24' E 139°39'0 0.0
2017-Jun-22 13:28N 35°24' E 139°39'0 0.1
2017-Jun-22 12:58N 35°24' E 139°39'0 0.1
2017-Jun-22 12:28N 35°24' E 139°39'0 0.0
2017-Jun-22 11:58N 35°24' E 139°39'0 0.0
2017-Jun-22 11:28N 35°24' E 139°39'0 0.0
2017-Jun-22 10:58N 35°24' E 139°39'0 0.0
2017-Jun-22 10:28N 35°24' E 139°39'0 0.0
2017-Jun-22 09:58N 35°24' E 139°39'0 0.0
2017-Jun-22 09:28N 35°24' E 139°39'0 0.0
2017-Jun-22 08:58N 35°24' E 139°39'0 0.0
2017-Jun-22 08:29N 35°24' E 139°39'0 0.8
2017-Jun-22 08:01N 35°24' E 139°39'1 2.2
2017-Jun-22 07:31N 35°24' E 139°40'0 0.2
2017-Jun-22 06:59N 35°24' E 139°40'0 0.0
2017-Jun-22 06:29N 35°24' E 139°40'0 0.0
2017-Jun-22 05:59N 35°24' E 139°40'0 0.0
2017-Jun-22 05:29N 35°24' E 139°40'0 0.0
2017-Jun-22 04:59N 35°24' E 139°40'0 0.0
2017-Jun-22 04:29N 35°24' E 139°40'0 0.0
2017-Jun-22 03:59N 35°24' E 139°40'0 0.0
2017-Jun-22 03:29N 35°24' E 139°40'0 0.0
2017-Jun-22 02:59N 35°24' E 139°40'0 0.0
2017-Jun-22 02:29N 35°24' E 139°40'0 0.0
2017-Jun-22 01:59N 35°24' E 139°40'0 0.0
2017-Jun-22 01:30N 35°24' E 139°40'1 1.8
2017-Jun-22 01:00N 35°24' E 139°41'3 5.0
2017-Jun-22 00:30N 35°25' E 139°43'5 9.7
2017-Jun-22 00:00N 35°28' E 139°48'5 9.6
2017-Jun-21 23:30N 35°30' E 139°53'1 2.2
2017-Jun-21 22:59N 35°31' E 139°54'0 0.0
2017-Jun-21 22:29N 35°31' E 139°54'0 0.0
2017-Jun-21 21:59N 35°31' E 139°54'0 0.0
2017-Jun-21 21:29N 35°31' E 139°54'0 0.0
2017-Jun-21 21:00N 35°31' E 139°54'0 0.0
2017-Jun-21 20:30N 35°31' E 139°54'0 0.0
2017-Jun-21 19:59N 35°31' E 139°54'0 0.1
2017-Jun-21 19:30N 35°31' E 139°54'0 0.2
2017-Jun-21 19:00N 35°31' E 139°54'0 0.1
2017-Jun-21 18:30N 35°31' E 139°54'0 0.0
2017-Jun-21 17:59N 35°31' E 139°54'0 0.0
2017-Jun-21 17:29N 35°31' E 139°54'0 0.0
2017-Jun-21 16:58N 35°31' E 139°54'0 0.0
2017-Jun-21 16:23N 35°31' E 139°54'0 0.0
2017-Jun-21 16:00N 35°31' E 139°54'0 0.0
2017-Jun-21 15:29N 35°31' E 139°54'0 0.0
2017-Jun-21 15:00N 35°31' E 139°54'0 0.1
2017-Jun-21 14:28N 35°31' E 139°54'0 0.0
2017-Jun-21 13:22N 35°31' E 139°54'0 0.0
2017-Jun-21 12:56N 35°31' E 139°54'0 0.0
2017-Jun-21 12:28N 35°31' E 139°54'0 0.0
2017-Jun-21 11:57N 35°31' E 139°54'0 0.0
2017-Jun-21 11:29N 35°31' E 139°54'0 0.0
2017-Jun-21 10:56N 35°31' E 139°54'0 0.0
2017-Jun-21 10:30N 35°31' E 139°54'0 0.0
2017-Jun-21 09:59N 35°31' E 139°54'0 0.0
2017-Jun-21 09:24N 35°31' E 139°54'0 0.0
2017-Jun-21 08:56N 35°31' E 139°54'0 0.1
2017-Jun-21 08:21N 35°31' E 139°54'0 0.2
2017-Jun-21 08:01N 35°31' E 139°54'0 0.2
2017-Jun-21 07:25N 35°31' E 139°54'0 0.5
2017-Jun-21 07:01N 35°31' E 139°55'510.7
2017-Jun-21 06:30N 35°27' E 139°50'713.1
2017-Jun-21 06:01N 35°24' E 139°43'4 7.0
2017-Jun-21 05:30N 35°24' E 139°38'0 0.4
2017-Jun-21 05:00N 35°24' E 139°39'0 0.0
2017-Jun-21 04:27N 35°24' E 139°39'0 0.0
2017-Jun-21 04:00N 35°24' E 139°39'0 0.0
2017-Jun-21 03:30N 35°24' E 139°39'0 0.0
2017-Jun-21 03:00N 35°24' E 139°39'0 0.0
2017-Jun-21 02:30N 35°24' E 139°39'0 0.0
2017-Jun-21 02:00N 35°24' E 139°39'0 0.0
2017-Jun-21 01:27N 35°24' E 139°39'0 0.0
2017-Jun-21 01:00N 35°24' E 139°39'0 0.0
2017-Jun-21 00:30N 35°24' E 139°39'0 0.0
2017-Jun-20 23:58N 35°24' E 139°39'0 0.4
2017-Jun-20 23:31N 35°24' E 139°39'1 2.3
2017-Jun-20 23:01N 35°24' E 139°40'0 0.1
2017-Jun-20 22:30N 35°24' E 139°40'0 0.0
2017-Jun-20 22:00N 35°24' E 139°40'0 0.0
2017-Jun-20 21:24N 35°24' E 139°40'0 0.0
2017-Jun-20 21:00N 35°24' E 139°40'0 0.0
2017-Jun-20 20:30N 35°24' E 139°40'0 0.0
2017-Jun-20 20:00N 35°24' E 139°40'0 0.0
2017-Jun-20 19:30N 35°24' E 139°40'0 0.1
2017-Jun-20 19:00N 35°24' E 139°40'0 0.1
2017-Jun-20 18:30N 35°24' E 139°40'0 0.0
2017-Jun-20 17:57N 35°24' E 139°40'0 0.0
2017-Jun-20 17:30N 35°24' E 139°40'0 0.0
2017-Jun-20 17:00N 35°24' E 139°40'0 0.1
2017-Jun-20 16:30N 35°24' E 139°40'0 0.1
2017-Jun-20 16:00N 35°24' E 139°40'0 0.0
2017-Jun-20 15:30N 35°24' E 139°40'0 0.0
2017-Jun-20 15:00N 35°24' E 139°40'0 0.0
2017-Jun-20 14:30N 35°24' E 139°40'0 0.0
2017-Jun-20 13:30N 35°24' E 139°40'0 0.0
2017-Jun-20 13:00N 35°24' E 139°40'0 0.0
2017-Jun-20 12:30N 35°24' E 139°40'0 0.0
2017-Jun-20 12:00N 35°24' E 139°40'0 0.0
2017-Jun-20 11:30N 35°24' E 139°40'0 0.1
2017-Jun-20 11:00N 35°24' E 139°40'0 0.1
2017-Jun-20 10:30N 35°24' E 139°40'0 0.0
2017-Jun-20 10:00N 35°24' E 139°40'0 0.0
2017-Jun-20 09:30N 35°24' E 139°40'0 0.0
2017-Jun-20 09:00N 35°24' E 139°40'0 0.0
2017-Jun-20 08:30N 35°24' E 139°40'0 0.0
2017-Jun-20 08:00N 35°24' E 139°40'0 0.0
2017-Jun-20 07:30N 35°24' E 139°40'0 0.2
2017-Jun-20 07:00N 35°24' E 139°40'1 2.2
2017-Jun-20 06:30N 35°24' E 139°39'0 0.1
2017-Jun-20 05:57N 35°24' E 139°39'0 0.0
2017-Jun-20 05:30N 35°24' E 139°39'0 0.0
2017-Jun-20 05:00N 35°24' E 139°39'0 0.0
2017-Jun-20 04:30N 35°24' E 139°39'0 0.0
2017-Jun-20 04:00N 35°24' E 139°39'0 0.0
2017-Jun-20 03:30N 35°24' E 139°39'0 0.0
2017-Jun-20 03:00N 35°24' E 139°39'0 0.0
2017-Jun-20 02:30N 35°24' E 139°39'0 0.0
2017-Jun-20 02:00N 35°24' E 139°39'0 0.0
2017-Jun-20 01:30N 35°24' E 139°39'0 0.0
2017-Jun-20 01:00N 35°24' E 139°39'0 0.0
2017-Jun-20 00:30N 35°24' E 139°39'0 0.0
2017-Jun-20 00:00N 35°24' E 139°39'0 0.0
2017-Jun-19 23:30N 35°24' E 139°39'1 1.5
2017-Jun-19 23:00N 35°24' E 139°39'1 1.0
2017-Jun-19 22:30N 35°24' E 139°40'0 0.0
2017-Jun-19 22:00N 35°24' E 139°40'0 0.0
2017-Jun-19 21:30N 35°24' E 139°40'0 0.0
2017-Jun-19 21:00N 35°24' E 139°40'0 0.0
2017-Jun-19 20:30N 35°24' E 139°40'0 0.0
2017-Jun-19 20:00N 35°24' E 139°40'0 0.0
2017-Jun-19 19:30N 35°24' E 139°40'0 0.0
2017-Jun-19 19:00N 35°24' E 139°40'0 0.0
2017-Jun-19 18:30N 35°24' E 139°40'0 0.0
2017-Jun-19 17:57N 35°24' E 139°40'0 0.1
2017-Jun-19 17:30N 35°24' E 139°40'0 0.1
2017-Jun-19 17:00N 35°24' E 139°40'0 0.0
2017-Jun-19 16:30N 35°24' E 139°40'0 0.0
2017-Jun-19 16:00N 35°24' E 139°40'0 0.0
2017-Jun-19 15:30N 35°24' E 139°40'0 0.0
2017-Jun-19 15:00N 35°24' E 139°40'0 0.0
2017-Jun-19 14:00N 35°24' E 139°40'0 0.0
2017-Jun-19 13:30N 35°24' E 139°40'0 0.0
2017-Jun-19 12:57N 35°24' E 139°40'0 0.0
2017-Jun-19 12:30N 35°24' E 139°40'0 0.0
2017-Jun-19 12:00N 35°24' E 139°40'0 0.0
2017-Jun-19 11:30N 35°24' E 139°40'0 0.0
2017-Jun-19 11:00N 35°24' E 139°40'0 0.0
2017-Jun-19 10:30N 35°24' E 139°40'0 0.0
2017-Jun-19 10:00N 35°24' E 139°40'0 0.0
2017-Jun-19 09:30N 35°24' E 139°40'0 0.0
2017-Jun-19 09:00N 35°24' E 139°40'0 0.0
2017-Jun-19 08:30N 35°24' E 139°40'0 0.0
2017-Jun-19 08:00N 35°24' E 139°40'0 0.7
2017-Jun-19 07:30N 35°24' E 139°40'1 1.7
2017-Jun-19 07:00N 35°24' E 139°39'0 0.2
2017-Jun-19 06:30N 35°24' E 139°39'0 0.0
2017-Jun-19 05:58N 35°24' E 139°39'0 0.0
2017-Jun-19 05:28N 35°24' E 139°39'0 0.0
2017-Jun-19 04:58N 35°24' E 139°39'0 0.0
2017-Jun-19 04:28N 35°24' E 139°39'0 0.0
2017-Jun-19 03:58N 35°24' E 139°39'0 0.0
2017-Jun-19 03:28N 35°24' E 139°39'0 0.0
2017-Jun-19 02:58N 35°24' E 139°39'0 0.0
2017-Jun-19 02:28N 35°24' E 139°39'0 0.0
2017-Jun-19 01:58N 35°24' E 139°39'0 0.0
2017-Jun-19 01:28N 35°24' E 139°39'0 0.0
2017-Jun-19 00:58N 35°24' E 139°39'0 0.0
2017-Jun-19 00:28N 35°24' E 139°39'0 0.0
2017-Jun-18 23:55N 35°24' E 139°39'0 0.0
2017-Jun-18 23:29N 35°24' E 139°39'0 0.8
2017-Jun-18 23:00N 35°24' E 139°39'3 6.5
2017-Jun-18 22:30N 35°24' E 139°43'611.2
2017-Jun-18 22:00N 35°28' E 139°47'3 6.4
2017-Jun-18 21:30N 35°30' E 139°44'0 0.3
2017-Jun-18 21:01N 35°30' E 139°44'0 0.0
2017-Jun-18 20:28N 35°30' E 139°44'0 0.0
2017-Jun-18 19:58N 35°30' E 139°44'0 0.0
2017-Jun-18 19:31N 35°30' E 139°44'0 0.0
2017-Jun-18 18:58N 35°30' E 139°44'0 0.0
2017-Jun-18 18:28N 35°30' E 139°44'0 0.0
2017-Jun-18 17:59N 35°30' E 139°44'0 0.0
2017-Jun-18 17:29N 35°30' E 139°44'0 0.0
2017-Jun-18 16:59N 35°30' E 139°44'0 0.0
2017-Jun-18 16:29N 35°30' E 139°44'0 0.0
2017-Jun-18 15:59N 35°30' E 139°44'0 0.0
2017-Jun-18 15:29N 35°30' E 139°44'0 0.0
2017-Jun-18 14:59N 35°30' E 139°44'0 0.0
2017-Jun-18 13:59N 35°30' E 139°44'0 0.0
2017-Jun-18 13:29N 35°30' E 139°44'0 0.0
2017-Jun-18 12:59N 35°30' E 139°44'0 0.0
2017-Jun-18 12:29N 35°30' E 139°44'0 0.1
2017-Jun-18 11:59N 35°30' E 139°44'0 0.0
2017-Jun-18 11:29N 35°30' E 139°44'0 0.1
2017-Jun-18 10:59N 35°30' E 139°44'0 0.1
2017-Jun-18 10:29N 35°30' E 139°44'0 0.1
2017-Jun-18 09:59N 35°30' E 139°44'0 0.0
2017-Jun-18 09:28N 35°30' E 139°44'0 0.0
2017-Jun-18 08:58N 35°30' E 139°44'0 0.0
2017-Jun-18 08:29N 35°30' E 139°44'0 0.0
2017-Jun-18 07:59N 35°30' E 139°44'0 0.0
2017-Jun-18 07:29N 35°30' E 139°44'0 0.0
2017-Jun-18 06:59N 35°30' E 139°44'0 0.0
2017-Jun-18 06:29N 35°30' E 139°44'0 0.0
2017-Jun-18 05:59N 35°30' E 139°44'0 0.0
2017-Jun-18 05:28N 35°30' E 139°44'0 0.0
2017-Jun-18 04:59N 35°30' E 139°44'0 0.1
2017-Jun-18 04:29N 35°30' E 139°44'0 0.1
2017-Jun-18 03:56N 35°30' E 139°44'0 0.0
2017-Jun-18 03:29N 35°30' E 139°44'0 0.1
2017-Jun-18 02:59N 35°30' E 139°44'0 0.0
2017-Jun-18 02:29N 35°30' E 139°44'0 0.1
2017-Jun-18 01:59N 35°30' E 139°44'0 0.0
2017-Jun-18 01:29N 35°30' E 139°44'0 0.6
2017-Jun-18 01:01N 35°30' E 139°44'2 4.7
2017-Jun-18 00:30N 35°28' E 139°42'4 8.2
2017-Jun-18 00:01N 35°24' E 139°42'3 5.4
2017-Jun-17 23:31N 35°24' E 139°39'0 0.0
2017-Jun-17 23:00N 35°24' E 139°39'0 0.0
2017-Jun-17 22:30N 35°24' E 139°39'0 0.0
2017-Jun-17 22:00N 35°24' E 139°39'0 0.0
2017-Jun-17 21:30N 35°24' E 139°39'0 0.0
2017-Jun-17 21:00N 35°24' E 139°39'0 0.0
2017-Jun-17 20:30N 35°24' E 139°39'0 0.0
2017-Jun-17 20:00N 35°24' E 139°39'0 0.0
2017-Jun-17 19:30N 35°24' E 139°39'0 0.0
2017-Jun-17 19:00N 35°24' E 139°39'0 0.0
2017-Jun-17 18:30N 35°24' E 139°39'0 0.0
2017-Jun-17 18:00N 35°24' E 139°39'0 0.0
2017-Jun-17 17:30N 35°24' E 139°39'0 0.0
2017-Jun-17 17:00N 35°24' E 139°39'0 0.0
2017-Jun-17 16:30N 35°24' E 139°39'0 0.0
2017-Jun-17 16:00N 35°24' E 139°39'0 0.0
2017-Jun-17 15:30N 35°24' E 139°39'0 0.0
2017-Jun-17 15:00N 35°24' E 139°39'0 0.0
2017-Jun-17 14:30N 35°24' E 139°39'0 0.0
2017-Jun-17 13:30N 35°24' E 139°39'0 0.0
2017-Jun-17 13:00N 35°24' E 139°39'0 0.0
2017-Jun-17 12:30N 35°24' E 139°39'0 0.0
2017-Jun-17 12:00N 35°24' E 139°39'0 0.0
2017-Jun-17 11:30N 35°24' E 139°39'0 0.0
2017-Jun-17 11:00N 35°24' E 139°39'0 0.0
2017-Jun-17 10:30N 35°24' E 139°39'0 0.0
2017-Jun-17 10:00N 35°24' E 139°39'0 0.0
2017-Jun-17 09:30N 35°24' E 139°39'0 0.0
2017-Jun-17 09:00N 35°24' E 139°39'0 0.3
2017-Jun-17 08:30N 35°24' E 139°38'1 2.3
2017-Jun-17 08:00N 35°24' E 139°40'0 0.6
2017-Jun-17 07:30N 35°24' E 139°40'0 0.0
2017-Jun-17 07:00N 35°24' E 139°40'0 0.0
2017-Jun-17 06:30N 35°24' E 139°40'0 0.0
2017-Jun-17 06:00N 35°24' E 139°40'0 0.0
2017-Jun-17 05:30N 35°24' E 139°40'0 0.0
2017-Jun-17 05:00N 35°24' E 139°40'0 0.0
2017-Jun-17 04:30N 35°24' E 139°40'0 0.0
2017-Jun-17 04:00N 35°24' E 139°40'0 0.0
2017-Jun-17 03:30N 35°24' E 139°40'0 0.0
2017-Jun-17 03:00N 35°24' E 139°40'0 0.0
2017-Jun-17 02:30N 35°24' E 139°40'0 0.0
2017-Jun-17 02:01N 35°24' E 139°40'1 1.8
2017-Jun-17 01:31N 35°24' E 139°41'4 7.1
2017-Jun-17 01:01N 35°23' E 139°45'0 0.1
2017-Jun-17 00:30N 35°23' E 139°45'0 0.0
2017-Jun-17 00:00N 35°23' E 139°45'0 0.0
2017-Jun-16 23:30N 35°23' E 139°45'0 0.0
2017-Jun-16 23:00N 35°23' E 139°45'0 0.0
2017-Jun-16 22:30N 35°23' E 139°45'0 0.0
2017-Jun-16 22:00N 35°23' E 139°45'0 0.0
2017-Jun-16 21:30N 35°23' E 139°45'0 0.0
2017-Jun-16 21:00N 35°23' E 139°45'0 0.0
2017-Jun-16 20:30N 35°23' E 139°45'0 0.0
2017-Jun-16 20:00N 35°23' E 139°45'0 0.0
2017-Jun-16 19:30N 35°23' E 139°45'0 0.0
2017-Jun-16 19:00N 35°23' E 139°45'0 0.0
2017-Jun-16 18:30N 35°23' E 139°45'0 0.0
2017-Jun-16 18:00N 35°23' E 139°45'0 0.0
2017-Jun-16 17:30N 35°23' E 139°45'0 0.0
2017-Jun-16 17:00N 35°23' E 139°45'0 0.0
2017-Jun-16 16:30N 35°23' E 139°45'0 0.0
2017-Jun-16 16:00N 35°23' E 139°45'0 0.0
2017-Jun-16 15:30N 35°23' E 139°45'0 0.0
2017-Jun-16 15:00N 35°23' E 139°45'0 0.0
2017-Jun-16 14:30N 35°23' E 139°45'5 5.3
2017-Jun-16 13:30N 35°24' E 139°39'0 0.0
2017-Jun-16 12:58N 35°24' E 139°39'0 0.0
2017-Jun-16 12:28N 35°24' E 139°39'0 0.0
2017-Jun-16 11:58N 35°24' E 139°39'0 0.0
2017-Jun-16 11:28N 35°24' E 139°39'0 0.0
2017-Jun-16 10:58N 35°24' E 139°39'0 0.0
2017-Jun-16 10:28N 35°24' E 139°39'0 0.0
2017-Jun-16 09:58N 35°24' E 139°39'0 0.0
2017-Jun-16 09:28N 35°24' E 139°39'0 0.0
2017-Jun-16 08:58N 35°24' E 139°39'0 0.0
2017-Jun-16 08:28N 35°24' E 139°39'0 0.0
2017-Jun-16 07:58N 35°24' E 139°39'0 0.0
2017-Jun-16 07:28N 35°24' E 139°39'0 0.0
2017-Jun-16 06:58N 35°24' E 139°39'0 0.0
2017-Jun-16 06:28N 35°24' E 139°39'0 0.0
2017-Jun-16 05:58N 35°24' E 139°39'0 0.0
2017-Jun-16 05:28N 35°24' E 139°39'0 0.1
2017-Jun-16 04:58N 35°24' E 139°39'0 0.1
2017-Jun-16 04:28N 35°24' E 139°39'0 0.0
2017-Jun-16 03:55N 35°24' E 139°39'0 0.0
2017-Jun-16 03:28N 35°24' E 139°39'0 0.0
2017-Jun-16 02:58N 35°24' E 139°39'0 0.0
2017-Jun-16 02:28N 35°24' E 139°39'0 0.0
2017-Jun-16 01:58N 35°24' E 139°39'0 0.0
2017-Jun-16 01:28N 35°24' E 139°39'0 0.0
2017-Jun-16 00:58N 35°24' E 139°39'0 0.0
2017-Jun-16 00:28N 35°24' E 139°39'0 0.0
2017-Jun-16 00:00N 35°24' E 139°39'1 1.0
2017-Jun-15 23:30N 35°24' E 139°39'1 2.0
2017-Jun-15 23:00N 35°24' E 139°40'0 0.0
2017-Jun-15 22:30N 35°24' E 139°40'0 0.0
2017-Jun-15 22:00N 35°24' E 139°40'0 0.0
2017-Jun-15 21:30N 35°24' E 139°40'0 0.0
2017-Jun-15 21:00N 35°24' E 139°40'0 0.0
2017-Jun-15 20:30N 35°24' E 139°40'0 0.0
2017-Jun-15 20:00N 35°24' E 139°40'0 0.0
2017-Jun-15 19:30N 35°24' E 139°40'0 0.0
2017-Jun-15 19:00N 35°24' E 139°40'0 0.0
2017-Jun-15 18:30N 35°24' E 139°40'0 0.0
2017-Jun-15 18:00N 35°24' E 139°40'0 0.0
2017-Jun-15 17:30N 35°24' E 139°40'0 0.0
2017-Jun-15 17:00N 35°24' E 139°40'0 0.0
2017-Jun-15 16:30N 35°24' E 139°40'0 0.0
2017-Jun-15 16:00N 35°24' E 139°40'0 0.0
2017-Jun-15 15:30N 35°24' E 139°40'0 0.0
2017-Jun-15 15:00N 35°24' E 139°40'0 0.0
2017-Jun-15 14:00N 35°24' E 139°40'0 0.0
2017-Jun-15 13:30N 35°24' E 139°40'0 0.0
2017-Jun-15 12:57N 35°24' E 139°40'0 0.0
2017-Jun-15 12:30N 35°24' E 139°40'0 0.0
2017-Jun-15 12:00N 35°24' E 139°40'0 0.0
2017-Jun-15 11:30N 35°24' E 139°40'0 0.0
2017-Jun-15 11:00N 35°24' E 139°40'0 0.1
2017-Jun-15 10:30N 35°24' E 139°40'0 0.1
2017-Jun-15 10:00N 35°24' E 139°40'0 0.0
2017-Jun-15 09:30N 35°24' E 139°40'0 0.0
2017-Jun-15 09:00N 35°24' E 139°40'0 0.0
2017-Jun-15 08:30N 35°24' E 139°40'0 0.0
2017-Jun-15 08:00N 35°24' E 139°40'0 0.1
2017-Jun-15 07:30N 35°24' E 139°40'1 2.1
2017-Jun-15 07:00N 35°24' E 139°39'0 0.2
2017-Jun-15 06:29N 35°24' E 139°39'0 0.0
2017-Jun-15 05:59N 35°24' E 139°39'0 0.0
2017-Jun-15 05:28N 35°24' E 139°39'0 0.0
2017-Jun-15 04:59N 35°24' E 139°39'0 0.0
2017-Jun-15 04:29N 35°24' E 139°39'0 0.0
2017-Jun-15 03:59N 35°24' E 139°39'0 0.0
2017-Jun-15 03:29N 35°24' E 139°39'0 0.0
2017-Jun-15 02:59N 35°24' E 139°39'0 0.0
2017-Jun-15 02:29N 35°24' E 139°39'0 0.0
2017-Jun-15 01:59N 35°24' E 139°39'  
Track history (hours):
 
Tides and Currents Weather Stations Pressure Air Temp Water Temp Dewpoint Dewpoint Depression Visibility Wind Speed Wind Dir Waves Ship Positions

Jp Tsubaki

Last reported at 2017-Jun-25 01:30 UTC. Time now 2017-Jun-25 01:52 UTC.
Position N 35°30' E 139°43'.

Length 115 m; draft 6 m.

Type: Cargo ship. MMSI: 431000734.

Date/timePositionNaut miles runAvg speedWind from/ knotsBaromVisibWave heightAir tempDewpointWater temp
2017-Jun-25 01:30N 35°30' E 139°43'0 0.0
2017-Jun-25 01:00N 35°30' E 139°43'0 0.0
2017-Jun-25 00:30N 35°30' E 139°43'0 0.0
2017-Jun-25 00:00N 35°30' E 139°43'0 0.0
2017-Jun-24 23:30N 35°30' E 139°43'0 0.0
2017-Jun-24 23:00N 35°30' E 139°43'0 0.1
2017-Jun-24 22:30N 35°30' E 139°43'2 3.4
2017-Jun-24 22:00N 35°28' E 139°42'4 8.2
2017-Jun-24 21:31N 35°25' E 139°45'3 5.1
2017-Jun-24 20:59N 35°23' E 139°44'0 0.0
2017-Jun-24 20:29N 35°23' E 139°44'0 0.1
2017-Jun-24 19:59N 35°23' E 139°44'0 0.1
2017-Jun-24 19:29N 35°23' E 139°45'0 0.1
2017-Jun-24 18:56N 35°23' E 139°45'0 0.0
2017-Jun-24 18:29N 35°23' E 139°45'0 0.1
2017-Jun-24 17:59N 35°23' E 139°45'0 0.0
2017-Jun-24 17:29N 35°23' E 139°45'0 0.0
2017-Jun-24 16:59N 35°23' E 139°45'0 0.0
2017-Jun-24 16:29N 35°23' E 139°45'0 0.0
2017-Jun-24 15:59N 35°23' E 139°45'0 0.1
2017-Jun-24 15:29N 35°23' E 139°44'0 0.0
2017-Jun-24 14:59N 35°23' E 139°44'0 0.0
2017-Jun-24 13:59N 35°23' E 139°44'0 0.0
2017-Jun-24 13:29N 35°23' E 139°44'0 0.0
2017-Jun-24 12:59N 35°23' E 139°44'0 0.0
2017-Jun-24 12:29N 35°23' E 139°44'0 0.0
2017-Jun-24 11:59N 35°23' E 139°44'0 0.0
2017-Jun-24 11:29N 35°23' E 139°44'0 0.0
2017-Jun-24 10:59N 35°23' E 139°44'0 0.0
2017-Jun-24 10:29N 35°23' E 139°44'0 0.0
2017-Jun-24 09:59N 35°23' E 139°44'0 0.1
2017-Jun-24 09:29N 35°23' E 139°45'0 0.1
2017-Jun-24 08:59N 35°23' E 139°45'0 0.0
2017-Jun-24 08:29N 35°23' E 139°45'0 0.0
2017-Jun-24 07:59N 35°23' E 139°45'0 0.1
2017-Jun-24 07:29N 35°23' E 139°45'0 0.0
2017-Jun-24 06:59N 35°23' E 139°45'0 0.0
2017-Jun-24 06:29N 35°23' E 139°45'0 0.1
2017-Jun-24 05:59N 35°23' E 139°45'0 0.0
2017-Jun-24 05:29N 35°23' E 139°45'0 0.0
2017-Jun-24 04:59N 35°23' E 139°45'0 0.0
2017-Jun-24 04:29N 35°23' E 139°45'0 0.0
2017-Jun-24 03:59N 35°23' E 139°45'0 0.0
2017-Jun-24 03:29N 35°23' E 139°45'0 0.1
2017-Jun-24 02:59N 35°23' E 139°45'0 0.1
2017-Jun-24 02:29N 35°23' E 139°44'0 0.1
2017-Jun-24 01:59N 35°23' E 139°44'0 0.1
2017-Jun-24 01:29N 35°23' E 139°44'0 0.0
2017-Jun-24 00:59N 35°23' E 139°44'1 1.8
2017-Jun-24 00:30N 35°23' E 139°44'4 8.6
2017-Jun-24 00:00N 35°24' E 139°39'0 0.3
2017-Jun-23 23:30N 35°24' E 139°38'0 0.0
2017-Jun-23 22:59N 35°24' E 139°38'0 0.0
2017-Jun-23 22:29N 35°24' E 139°38'0 0.0
2017-Jun-23 21:59N 35°24' E 139°38'0 0.0
2017-Jun-23 21:29N 35°24' E 139°38'0 0.0
2017-Jun-23 20:59N 35°24' E 139°38'0 0.0
2017-Jun-23 20:29N 35°24' E 139°38'0 0.0
2017-Jun-23 19:59N 35°24' E 139°38'0 0.0
2017-Jun-23 19:29N 35°24' E 139°38'0 0.0
2017-Jun-23 18:59N 35°24' E 139°38'0 0.0
2017-Jun-23 18:29N 35°24' E 139°38'0 0.0
2017-Jun-23 17:59N 35°24' E 139°38'0 0.0
2017-Jun-23 17:29N 35°24' E 139°38'0 0.0
2017-Jun-23 16:59N 35°24' E 139°38'0 0.0
2017-Jun-23 16:29N 35°24' E 139°38'0 0.0
2017-Jun-23 15:59N 35°24' E 139°38'0 0.0
2017-Jun-23 15:29N 35°24' E 139°38'0 0.0
2017-Jun-23 14:59N 35°24' E 139°38'0 0.0
2017-Jun-23 13:59N 35°24' E 139°38'0 0.0
2017-Jun-23 13:29N 35°24' E 139°38'0 0.0
2017-Jun-23 12:59N 35°24' E 139°38'0 0.0
2017-Jun-23 12:29N 35°24' E 139°38'0 0.0
2017-Jun-23 11:59N 35°24' E 139°38'0 0.0
2017-Jun-23 11:29N 35°24' E 139°38'0 0.0
2017-Jun-23 10:59N 35°24' E 139°38'0 0.0
2017-Jun-23 10:29N 35°24' E 139°38'0 0.0
2017-Jun-23 09:59N 35°24' E 139°38'0 0.0
2017-Jun-23 09:26N 35°24' E 139°38'0 0.0
2017-Jun-23 08:59N 35°24' E 139°38'1 1.1
2017-Jun-23 08:30N 35°24' E 139°39'4 8.0
2017-Jun-23 08:00N 35°23' E 139°44'0 0.5
2017-Jun-23 07:30N 35°22' E 139°44'1 1.2
2017-Jun-23 07:01N 35°23' E 139°44'3 6.6
2017-Jun-23 06:31N 35°24' E 139°40'0 0.2
2017-Jun-23 05:58N 35°24' E 139°40'0 0.0
2017-Jun-23 05:28N 35°24' E 139°40'0 0.0
2017-Jun-23 04:58N 35°24' E 139°40'0 0.0
2017-Jun-23 04:28N 35°24' E 139°40'0 0.0
2017-Jun-23 03:58N 35°24' E 139°40'0 0.0
2017-Jun-23 03:28N 35°24' E 139°40'0 0.0
2017-Jun-23 02:58N 35°24' E 139°40'0 0.0
2017-Jun-23 02:28N 35°24' E 139°40'0 0.0
2017-Jun-23 01:58N 35°24' E 139°40'0 0.0
2017-Jun-23 01:28N 35°24' E 139°40'0 0.0
2017-Jun-23 00:58N 35°24' E 139°40'0 0.0
2017-Jun-23 00:28N 35°24' E 139°40'0 0.0
2017-Jun-22 23:58N 35°24' E 139°40'0 0.0
2017-Jun-22 23:28N 35°24' E 139°40'0 0.4
2017-Jun-22 23:01N 35°24' E 139°40'1 2.1
2017-Jun-22 22:31N 35°24' E 139°39'0 0.0
2017-Jun-22 21:58N 35°24' E 139°39'0 0.0
2017-Jun-22 21:28N 35°24' E 139°39'0 0.0
2017-Jun-22 20:58N 35°24' E 139°39'0 0.0
2017-Jun-22 20:28N 35°24' E 139°39'0 0.0
2017-Jun-22 19:58N 35°24' E 139°39'0 0.0
2017-Jun-22 19:28N 35°24' E 139°39'0 0.0
2017-Jun-22 18:58N 35°24' E 139°39'0 0.0
2017-Jun-22 18:28N 35°24' E 139°39'0 0.0
2017-Jun-22 17:58N 35°24' E 139°39'0 0.0
2017-Jun-22 17:28N 35°24' E 139°39'0 0.1
2017-Jun-22 16:58N 35°24' E 139°39'0 0.1
2017-Jun-22 16:28N 35°24' E 139°39'0 0.0
2017-Jun-22 15:58N 35°24' E 139°39'0 0.0
2017-Jun-22 15:28N 35°24' E 139°39'0 0.0
2017-Jun-22 14:58N 35°24' E 139°39'0 0.0
2017-Jun-22 13:58N 35°24' E 139°39'0 0.0
2017-Jun-22 13:28N 35°24' E 139°39'0 0.1
2017-Jun-22 12:58N 35°24' E 139°39'0 0.1
2017-Jun-22 12:28N 35°24' E 139°39'0 0.0
2017-Jun-22 11:58N 35°24' E 139°39'0 0.0
2017-Jun-22 11:28N 35°24' E 139°39'0 0.0
2017-Jun-22 10:58N 35°24' E 139°39'0 0.0
2017-Jun-22 10:28N 35°24' E 139°39'0 0.0
2017-Jun-22 09:58N 35°24' E 139°39'0 0.0
2017-Jun-22 09:28N 35°24' E 139°39'0 0.0
2017-Jun-22 08:58N 35°24' E 139°39'0 0.0
2017-Jun-22 08:29N 35°24' E 139°39'0 0.8
2017-Jun-22 08:01N 35°24' E 139°39'1 2.2
2017-Jun-22 07:31N 35°24' E 139°40'0 0.2
2017-Jun-22 06:59N 35°24' E 139°40'0 0.0
2017-Jun-22 06:29N 35°24' E 139°40'0 0.0
2017-Jun-22 05:59N 35°24' E 139°40'0 0.0
2017-Jun-22 05:29N 35°24' E 139°40'0 0.0
2017-Jun-22 04:59N 35°24' E 139°40'0 0.0
2017-Jun-22 04:29N 35°24' E 139°40'0 0.0
2017-Jun-22 03:59N 35°24' E 139°40'0 0.0
2017-Jun-22 03:29N 35°24' E 139°40'0 0.0
2017-Jun-22 02:59N 35°24' E 139°40'0 0.0
2017-Jun-22 02:29N 35°24' E 139°40'0 0.0
2017-Jun-22 01:59N 35°24' E 139°40'0 0.0
2017-Jun-22 01:30N 35°24' E 139°40'1 1.8
2017-Jun-22 01:00N 35°24' E 139°41'3 5.0
2017-Jun-22 00:30N 35°25' E 139°43'5 9.7
2017-Jun-22 00:00N 35°28' E 139°48'5 9.6
2017-Jun-21 23:30N 35°30' E 139°53'1 2.2
2017-Jun-21 22:59N 35°31' E 139°54'0 0.0
2017-Jun-21 22:29N 35°31' E 139°54'0 0.0
2017-Jun-21 21:59N 35°31' E 139°54'0 0.0
2017-Jun-21 21:29N 35°31' E 139°54'0 0.0
2017-Jun-21 21:00N 35°31' E 139°54'0 0.0
2017-Jun-21 20:30N 35°31' E 139°54'0 0.0
2017-Jun-21 19:59N 35°31' E 139°54'0 0.1
2017-Jun-21 19:30N 35°31' E 139°54'0 0.2
2017-Jun-21 19:00N 35°31' E 139°54'0 0.1
2017-Jun-21 18:30N 35°31' E 139°54'0 0.0
2017-Jun-21 17:59N 35°31' E 139°54'0 0.0
2017-Jun-21 17:29N 35°31' E 139°54'0 0.0
2017-Jun-21 16:58N 35°31' E 139°54'0 0.0
2017-Jun-21 16:23N 35°31' E 139°54'0 0.0
2017-Jun-21 16:00N 35°31' E 139°54'0 0.0
2017-Jun-21 15:29N 35°31' E 139°54'0 0.0
2017-Jun-21 15:00N 35°31' E 139°54'0 0.1
2017-Jun-21 14:28N 35°31' E 139°54'0 0.0
2017-Jun-21 13:22N 35°31' E 139°54'0 0.0
2017-Jun-21 12:56N 35°31' E 139°54'0 0.0
2017-Jun-21 12:28N 35°31' E 139°54'0 0.0
2017-Jun-21 11:57N 35°31' E 139°54'0 0.0
2017-Jun-21 11:29N 35°31' E 139°54'0 0.0
2017-Jun-21 10:56N 35°31' E 139°54'0 0.0
2017-Jun-21 10:30N 35°31' E 139°54'0 0.0
2017-Jun-21 09:59N 35°31' E 139°54'0 0.0
2017-Jun-21 09:24N 35°31' E 139°54'0 0.0
2017-Jun-21 08:56N 35°31' E 139°54'0 0.1
2017-Jun-21 08:21N 35°31' E 139°54'0 0.2
2017-Jun-21 08:01N 35°31' E 139°54'0 0.2
2017-Jun-21 07:25N 35°31' E 139°54'0 0.5
2017-Jun-21 07:01N 35°31' E 139°55'510.7
2017-Jun-21 06:30N 35°27' E 139°50'713.1
2017-Jun-21 06:01N 35°24' E 139°43'4 7.0
2017-Jun-21 05:30N 35°24' E 139°38'0 0.4
2017-Jun-21 05:00N 35°24' E 139°39'0 0.0
2017-Jun-21 04:27N 35°24' E 139°39'0 0.0
2017-Jun-21 04:00N 35°24' E 139°39'0 0.0
2017-Jun-21 03:30N 35°24' E 139°39'0 0.0
2017-Jun-21 03:00N 35°24' E 139°39'0 0.0
2017-Jun-21 02:30N 35°24' E 139°39'0 0.0
2017-Jun-21 02:00N 35°24' E 139°39'0 0.0
2017-Jun-21 01:27N 35°24' E 139°39'0 0.0
2017-Jun-21 01:00N 35°24' E 139°39'0 0.0
2017-Jun-21 00:30N 35°24' E 139°39'0 0.0
2017-Jun-20 23:58N 35°24' E 139°39'0 0.4
2017-Jun-20 23:31N 35°24' E 139°39'1 2.3
2017-Jun-20 23:01N 35°24' E 139°40'0 0.1
2017-Jun-20 22:30N 35°24' E 139°40'0 0.0
2017-Jun-20 22:00N 35°24' E 139°40'0 0.0
2017-Jun-20 21:24N 35°24' E 139°40'0 0.0
2017-Jun-20 21:00N 35°24' E 139°40'0 0.0
2017-Jun-20 20:30N 35°24' E 139°40'0 0.0
2017-Jun-20 20:00N 35°24' E 139°40'0 0.0
2017-Jun-20 19:30N 35°24' E 139°40'0 0.1
2017-Jun-20 19:00N 35°24' E 139°40'0 0.1
2017-Jun-20 18:30N 35°24' E 139°40'0 0.0
2017-Jun-20 17:57N 35°24' E 139°40'0 0.0
2017-Jun-20 17:30N 35°24' E 139°40'0 0.0
2017-Jun-20 17:00N 35°24' E 139°40'0 0.1
2017-Jun-20 16:30N 35°24' E 139°40'0 0.1
2017-Jun-20 16:00N 35°24' E 139°40'0 0.0
2017-Jun-20 15:30N 35°24' E 139°40'0 0.0
2017-Jun-20 15:00N 35°24' E 139°40'0 0.0
2017-Jun-20 14:30N 35°24' E 139°40'0 0.0
2017-Jun-20 13:30N 35°24' E 139°40'0 0.0
2017-Jun-20 13:00N 35°24' E 139°40'0 0.0
2017-Jun-20 12:30N 35°24' E 139°40'0 0.0
2017-Jun-20 12:00N 35°24' E 139°40'0 0.0
2017-Jun-20 11:30N 35°24' E 139°40'0 0.1
2017-Jun-20 11:00N 35°24' E 139°40'0 0.1
2017-Jun-20 10:30N 35°24' E 139°40'0 0.0
2017-Jun-20 10:00N 35°24' E 139°40'0 0.0
2017-Jun-20 09:30N 35°24' E 139°40'0 0.0
2017-Jun-20 09:00N 35°24' E 139°40'0 0.0
2017-Jun-20 08:30N 35°24' E 139°40'0 0.0
2017-Jun-20 08:00N 35°24' E 139°40'0 0.0
2017-Jun-20 07:30N 35°24' E 139°40'0 0.2
2017-Jun-20 07:00N 35°24' E 139°40'1 2.2
2017-Jun-20 06:30N 35°24' E 139°39'0 0.1
2017-Jun-20 05:57N 35°24' E 139°39'0 0.0
2017-Jun-20 05:30N 35°24' E 139°39'0 0.0
2017-Jun-20 05:00N 35°24' E 139°39'0 0.0
2017-Jun-20 04:30N 35°24' E 139°39'0 0.0
2017-Jun-20 04:00N 35°24' E 139°39'0 0.0
2017-Jun-20 03:30N 35°24' E 139°39'0 0.0
2017-Jun-20 03:00N 35°24' E 139°39'0 0.0
2017-Jun-20 02:30N 35°24' E 139°39'0 0.0
2017-Jun-20 02:00N 35°24' E 139°39'0 0.0
2017-Jun-20 01:30N 35°24' E 139°39'0 0.0
2017-Jun-20 01:00N 35°24' E 139°39'0 0.0
2017-Jun-20 00:30N 35°24' E 139°39'0 0.0
2017-Jun-20 00:00N 35°24' E 139°39'0 0.0
2017-Jun-19 23:30N 35°24' E 139°39'1 1.5
2017-Jun-19 23:00N 35°24' E 139°39'1 1.0
2017-Jun-19 22:30N 35°24' E 139°40'0 0.0
2017-Jun-19 22:00N 35°24' E 139°40'0 0.0
2017-Jun-19 21:30N 35°24' E 139°40'0 0.0
2017-Jun-19 21:00N 35°24' E 139°40'0 0.0
2017-Jun-19 20:30N 35°24' E 139°40'0 0.0
2017-Jun-19 20:00N 35°24' E 139°40'0 0.0
2017-Jun-19 19:30N 35°24' E 139°40'0 0.0
2017-Jun-19 19:00N 35°24' E 139°40'0 0.0
2017-Jun-19 18:30N 35°24' E 139°40'0 0.0
2017-Jun-19 17:57N 35°24' E 139°40'0 0.1
2017-Jun-19 17:30N 35°24' E 139°40'0 0.1
2017-Jun-19 17:00N 35°24' E 139°40'0 0.0
2017-Jun-19 16:30N 35°24' E 139°40'0 0.0
2017-Jun-19 16:00N 35°24' E 139°40'0 0.0
2017-Jun-19 15:30N 35°24' E 139°40'0 0.0
2017-Jun-19 15:00N 35°24' E 139°40'0 0.0
2017-Jun-19 14:00N 35°24' E 139°40'0 0.0
2017-Jun-19 13:30N 35°24' E 139°40'0 0.0
2017-Jun-19 12:57N 35°24' E 139°40'0 0.0
2017-Jun-19 12:30N 35°24' E 139°40'0 0.0
2017-Jun-19 12:00N 35°24' E 139°40'0 0.0
2017-Jun-19 11:30N 35°24' E 139°40'0 0.0
2017-Jun-19 11:00N 35°24' E 139°40'0 0.0
2017-Jun-19 10:30N 35°24' E 139°40'0 0.0
2017-Jun-19 10:00N 35°24' E 139°40'0 0.0
2017-Jun-19 09:30N 35°24' E 139°40'0 0.0
2017-Jun-19 09:00N 35°24' E 139°40'0 0.0
2017-Jun-19 08:30N 35°24' E 139°40'0 0.0
2017-Jun-19 08:00N 35°24' E 139°40'0 0.7
2017-Jun-19 07:30N 35°24' E 139°40'1 1.7
2017-Jun-19 07:00N 35°24' E 139°39'0 0.2
2017-Jun-19 06:30N 35°24' E 139°39'0 0.0
2017-Jun-19 05:58N 35°24' E 139°39'0 0.0
2017-Jun-19 05:28N 35°24' E 139°39'0 0.0
2017-Jun-19 04:58N 35°24' E 139°39'0 0.0
2017-Jun-19 04:28N 35°24' E 139°39'0 0.0
2017-Jun-19 03:58N 35°24' E 139°39'0 0.0
2017-Jun-19 03:28N 35°24' E 139°39'0 0.0
2017-Jun-19 02:58N 35°24' E 139°39'0 0.0
2017-Jun-19 02:28N 35°24' E 139°39'0 0.0
2017-Jun-19 01:58N 35°24' E 139°39'0 0.0
2017-Jun-19 01:28N 35°24' E 139°39'0 0.0
2017-Jun-19 00:58N 35°24' E 139°39'0 0.0
2017-Jun-19 00:28N 35°24' E 139°39'0 0.0
2017-Jun-18 23:55N 35°24' E 139°39'0 0.0
2017-Jun-18 23:29N 35°24' E 139°39'0 0.8
2017-Jun-18 23:00N 35°24' E 139°39'3 6.5
2017-Jun-18 22:30N 35°24' E 139°43'611.2
2017-Jun-18 22:00N 35°28' E 139°47'3 6.4
2017-Jun-18 21:30N 35°30' E 139°44'0 0.3
2017-Jun-18 21:01N 35°30' E 139°44'0 0.0
2017-Jun-18 20:28N 35°30' E 139°44'0 0.0
2017-Jun-18 19:58N 35°30' E 139°44'0 0.0
2017-Jun-18 19:31N 35°30' E 139°44'0 0.0
2017-Jun-18 18:58N 35°30' E 139°44'0 0.0
2017-Jun-18 18:28N 35°30' E 139°44'0 0.0
2017-Jun-18 17:59N 35°30' E 139°44'0 0.0
2017-Jun-18 17:29N 35°30' E 139°44'0 0.0
2017-Jun-18 16:59N 35°30' E 139°44'0 0.0
2017-Jun-18 16:29N 35°30' E 139°44'0 0.0
2017-Jun-18 15:59N 35°30' E 139°44'0 0.0
2017-Jun-18 15:29N 35°30' E 139°44'0 0.0
2017-Jun-18 14:59N 35°30' E 139°44'0 0.0
2017-Jun-18 13:59N 35°30' E 139°44'0 0.0
2017-Jun-18 13:29N 35°30' E 139°44'0 0.0
2017-Jun-18 12:59N 35°30' E 139°44'0 0.0
2017-Jun-18 12:29N 35°30' E 139°44'0 0.1
2017-Jun-18 11:59N 35°30' E 139°44'0 0.0
2017-Jun-18 11:29N 35°30' E 139°44'0 0.1
2017-Jun-18 10:59N 35°30' E 139°44'0 0.1
2017-Jun-18 10:29N 35°30' E 139°44'0 0.1
2017-Jun-18 09:59N 35°30' E 139°44'0 0.0
2017-Jun-18 09:28N 35°30' E 139°44'0 0.0
2017-Jun-18 08:58N 35°30' E 139°44'0 0.0
2017-Jun-18 08:29N 35°30' E 139°44'0 0.0
2017-Jun-18 07:59N 35°30' E 139°44'0 0.0
2017-Jun-18 07:29N 35°30' E 139°44'0 0.0
2017-Jun-18 06:59N 35°30' E 139°44'0 0.0
2017-Jun-18 06:29N 35°30' E 139°44'0 0.0
2017-Jun-18 05:59N 35°30' E 139°44'0 0.0
2017-Jun-18 05:28N 35°30' E 139°44'0 0.0
2017-Jun-18 04:59N 35°30' E 139°44'0 0.1
2017-Jun-18 04:29N 35°30' E 139°44'0 0.1
2017-Jun-18 03:56N 35°30' E 139°44'0 0.0
2017-Jun-18 03:29N 35°30' E 139°44'0 0.1
2017-Jun-18 02:59N 35°30' E 139°44'0 0.0
2017-Jun-18 02:29N 35°30' E 139°44'0 0.1
2017-Jun-18 01:59N 35°30' E 139°44'0 0.0
2017-Jun-18 01:29N 35°30' E 139°44'0 0.6
2017-Jun-18 01:01N 35°30' E 139°44'2 4.7
2017-Jun-18 00:30N 35°28' E 139°42'4 8.2
2017-Jun-18 00:01N 35°24' E 139°42'3 5.4
2017-Jun-17 23:31N 35°24' E 139°39'0 0.0
2017-Jun-17 23:00N 35°24' E 139°39'0 0.0
2017-Jun-17 22:30N 35°24' E 139°39'0 0.0
2017-Jun-17 22:00N 35°24' E 139°39'0 0.0
2017-Jun-17 21:30N 35°24' E 139°39'0 0.0
2017-Jun-17 21:00N 35°24' E 139°39'0 0.0
2017-Jun-17 20:30N 35°24' E 139°39'0 0.0
2017-Jun-17 20:00N 35°24' E 139°39'0 0.0
2017-Jun-17 19:30N 35°24' E 139°39'0 0.0
2017-Jun-17 19:00N 35°24' E 139°39'0 0.0
2017-Jun-17 18:30N 35°24' E 139°39'0 0.0
2017-Jun-17 18:00N 35°24' E 139°39'0 0.0
2017-Jun-17 17:30N 35°24' E 139°39'0 0.0
2017-Jun-17 17:00N 35°24' E 139°39'0 0.0
2017-Jun-17 16:30N 35°24' E 139°39'0 0.0
2017-Jun-17 16:00N 35°24' E 139°39'0 0.0
2017-Jun-17 15:30N 35°24' E 139°39'0 0.0
2017-Jun-17 15:00N 35°24' E 139°39'0 0.0
2017-Jun-17 14:30N 35°24' E 139°39'0 0.0
2017-Jun-17 13:30N 35°24' E 139°39'0 0.0
2017-Jun-17 13:00N 35°24' E 139°39'0 0.0
2017-Jun-17 12:30N 35°24' E 139°39'0 0.0
2017-Jun-17 12:00N 35°24' E 139°39'0 0.0
2017-Jun-17 11:30N 35°24' E 139°39'0 0.0
2017-Jun-17 11:00N 35°24' E 139°39'0 0.0
2017-Jun-17 10:30N 35°24' E 139°39'0 0.0
2017-Jun-17 10:00N 35°24' E 139°39'0 0.0
2017-Jun-17 09:30N 35°24' E 139°39'0 0.0
2017-Jun-17 09:00N 35°24' E 139°39'0 0.3
2017-Jun-17 08:30N 35°24' E 139°38'1 2.3
2017-Jun-17 08:00N 35°24' E 139°40'0 0.6
2017-Jun-17 07:30N 35°24' E 139°40'0 0.0
2017-Jun-17 07:00N 35°24' E 139°40'0 0.0
2017-Jun-17 06:30N 35°24' E 139°40'0 0.0
2017-Jun-17 06:00N 35°24' E 139°40'0 0.0
2017-Jun-17 05:30N 35°24' E 139°40'0 0.0
2017-Jun-17 05:00N 35°24' E 139°40'0 0.0
2017-Jun-17 04:30N 35°24' E 139°40'0 0.0
2017-Jun-17 04:00N 35°24' E 139°40'0 0.0
2017-Jun-17 03:30N 35°24' E 139°40'0 0.0
2017-Jun-17 03:00N 35°24' E 139°40'0 0.0
2017-Jun-17 02:30N 35°24' E 139°40'0 0.0
2017-Jun-17 02:01N 35°24' E 139°40'1 1.8
2017-Jun-17 01:31N 35°24' E 139°41'4 7.1
2017-Jun-17 01:01N 35°23' E 139°45'0 0.1
2017-Jun-17 00:30N 35°23' E 139°45'0 0.0
2017-Jun-17 00:00N 35°23' E 139°45'0 0.0
2017-Jun-16 23:30N 35°23' E 139°45'0 0.0
2017-Jun-16 23:00N 35°23' E 139°45'0 0.0
2017-Jun-16 22:30N 35°23' E 139°45'0 0.0
2017-Jun-16 22:00N 35°23' E 139°45'0 0.0
2017-Jun-16 21:30N 35°23' E 139°45'0 0.0
2017-Jun-16 21:00N 35°23' E 139°45'0 0.0
2017-Jun-16 20:30N 35°23' E 139°45'0 0.0
2017-Jun-16 20:00N 35°23' E 139°45'0 0.0
2017-Jun-16 19:30N 35°23' E 139°45'0 0.0
2017-Jun-16 19:00N 35°23' E 139°45'0 0.0
2017-Jun-16 18:30N 35°23' E 139°45'0 0.0
2017-Jun-16 18:00N 35°23' E 139°45'0 0.0
2017-Jun-16 17:30N 35°23' E 139°45'0 0.0
2017-Jun-16 17:00N 35°23' E 139°45'0 0.0
2017-Jun-16 16:30N 35°23' E 139°45'0 0.0
2017-Jun-16 16:00N 35°23' E 139°45'0 0.0
2017-Jun-16 15:30N 35°23' E 139°45'0 0.0
2017-Jun-16 15:00N 35°23' E 139°45'0 0.0
2017-Jun-16 14:30N 35°23' E 139°45'5 5.3
2017-Jun-16 13:30N 35°24' E 139°39'0 0.0
2017-Jun-16 12:58N 35°24' E 139°39'0 0.0
2017-Jun-16 12:28N 35°24' E 139°39'0 0.0
2017-Jun-16 11:58N 35°24' E 139°39'0 0.0
2017-Jun-16 11:28N 35°24' E 139°39'0 0.0
2017-Jun-16 10:58N 35°24' E 139°39'0 0.0
2017-Jun-16 10:28N 35°24' E 139°39'0 0.0
2017-Jun-16 09:58N 35°24' E 139°39'0 0.0
2017-Jun-16 09:28N 35°24' E 139°39'0 0.0
2017-Jun-16 08:58N 35°24' E 139°39'0 0.0
2017-Jun-16 08:28N 35°24' E 139°39'0 0.0
2017-Jun-16 07:58N 35°24' E 139°39'0 0.0
2017-Jun-16 07:28N 35°24' E 139°39'0 0.0
2017-Jun-16 06:58N 35°24' E 139°39'0 0.0
2017-Jun-16 06:28N 35°24' E 139°39'0 0.0
2017-Jun-16 05:58N 35°24' E 139°39'0 0.0
2017-Jun-16 05:28N 35°24' E 139°39'0 0.1
2017-Jun-16 04:58N 35°24' E 139°39'0 0.1
2017-Jun-16 04:28N 35°24' E 139°39'0 0.0
2017-Jun-16 03:55N 35°24' E 139°39'0 0.0
2017-Jun-16 03:28N 35°24' E 139°39'0 0.0
2017-Jun-16 02:58N 35°24' E 139°39'0 0.0
2017-Jun-16 02:28N 35°24' E 139°39'0 0.0
2017-Jun-16 01:58N 35°24' E 139°39'0 0.0
2017-Jun-16 01:28N 35°24' E 139°39'0 0.0
2017-Jun-16 00:58N 35°24' E 139°39'0 0.0
2017-Jun-16 00:28N 35°24' E 139°39'0 0.0
2017-Jun-16 00:00N 35°24' E 139°39'1 1.0
2017-Jun-15 23:30N 35°24' E 139°39'1 2.0
2017-Jun-15 23:00N 35°24' E 139°40'0 0.0
2017-Jun-15 22:30N 35°24' E 139°40'0 0.0
2017-Jun-15 22:00N 35°24' E 139°40'0 0.0
2017-Jun-15 21:30N 35°24' E 139°40'0 0.0
2017-Jun-15 21:00N 35°24' E 139°40'0 0.0
2017-Jun-15 20:30N 35°24' E 139°40'0 0.0
2017-Jun-15 20:00N 35°24' E 139°40'0 0.0
2017-Jun-15 19:30N 35°24' E 139°40'0 0.0
2017-Jun-15 19:00N 35°24' E 139°40'0 0.0
2017-Jun-15 18:30N 35°24' E 139°40'0 0.0
2017-Jun-15 18:00N 35°24' E 139°40'0 0.0
2017-Jun-15 17:30N 35°24' E 139°40'0 0.0
2017-Jun-15 17:00N 35°24' E 139°40'0 0.0
2017-Jun-15 16:30N 35°24' E 139°40'0 0.0
2017-Jun-15 16:00N 35°24' E 139°40'0 0.0
2017-Jun-15 15:30N 35°24' E 139°40'0 0.0
2017-Jun-15 15:00N 35°24' E 139°40'0 0.0
2017-Jun-15 14:00N 35°24' E 139°40'0 0.0
2017-Jun-15 13:30N 35°24' E 139°40'0 0.0
2017-Jun-15 12:57N 35°24' E 139°40'0 0.0
2017-Jun-15 12:30N 35°24' E 139°40'0 0.0
2017-Jun-15 12:00N 35°24' E 139°40'0 0.0
2017-Jun-15 11:30N 35°24' E 139°40'0 0.0
2017-Jun-15 11:00N 35°24' E 139°40'0 0.1
2017-Jun-15 10:30N 35°24' E 139°40'0 0.1
2017-Jun-15 10:00N 35°24' E 139°40'0 0.0
2017-Jun-15 09:30N 35°24' E 139°40'0 0.0
2017-Jun-15 09:00N 35°24' E 139°40'0 0.0
2017-Jun-15 08:30N 35°24' E 139°40'0 0.0
2017-Jun-15 08:00N 35°24' E 139°40'0 0.1
2017-Jun-15 07:30N 35°24' E 139°40'1 2.1
2017-Jun-15 07:00N 35°24' E 139°39'0 0.2
2017-Jun-15 06:29N 35°24' E 139°39'0 0.0
2017-Jun-15 05:59N 35°24' E 139°39'0 0.0
2017-Jun-15 05:28N 35°24' E 139°39'0 0.0
2017-Jun-15 04:59N 35°24' E 139°39'0 0.0
2017-Jun-15 04:29N 35°24' E 139°39'0 0.0
2017-Jun-15 03:59N 35°24' E 139°39'0 0.0
2017-Jun-15 03:29N 35°24' E 139°39'0 0.0
2017-Jun-15 02:59N 35°24' E 139°39'0 0.0
2017-Jun-15 02:29N 35°24' E 139°39'0 0.0
2017-Jun-15 01:59N 35°24' E 139°39'  

Dump ship's entire track history